Pagrindinis puslapis
METAR-TAF:

METAR-TAF

Oro uostai :

Damamas, Saudo Arabija

platuma: 26-28N, ilguma: 049-47E, Aukštis: 22 m

Dabartinis oras

Ataskaita buvo paskelbta 26 minutes, ne 15:00 UTC
Vėjas 8 kt iš Rytų/Šiaurės Rytų
Temperatūra 29°C
Drėgmė 37%
Slėgis 1006 hPa
Matomumas 10 km arba daugiau
nėra debesų žemiau 1500 m ir nėra kamuolinių lietaus debesų

METAR: OEDF 251500Z 07008KT CAVOK 29/13 Q1006 NOSIG

Laikas: 18:26 (15:26 UTC)

Prognozė

Ataskaita buvo paskelbta 6 valandos ir 26 minutes, ne 09:00 UTC
Prognozė galioja nuo 25 metu 12 UTC su 26 metu 18 UTC
Vėjas 10 kt iš Šiaurės Rytų
Matomumas 10 km arba daugiau
nėra debesų žemiau 1500 m ir nėra kamuolinių lietaus debesų
Tapsmas
nuo 25 metu 23 UTC su 26 metu 01 UTC
Vėjas 6 kt iš Pietų
Laikinai
nuo 26 metu 00 UTC su 26 metu 06 UTC
Matomumas: 5000 m
rūkana
Tikimybė 30% :
Laikinai
nuo 26 metu 02 UTC su 26 metu 05 UTC
Matomumas: 2000 m

TAF: OEDF 250900Z 2512/2618 04010KT CAVOK BECMG 2523/2601 18006KT TEMPO 2600/2606 5000 BR NSC PROB30 TEMPO 2602/2605 2000

Orai ataskaitas ir orų prognozės (METAR, TAF).

turimą stotys yra geltonos ir raudonos taškus žemėlapyje.

Perkelti pele per norėdami pamatyti stoties vardą.

Tada spustelėkite, norėdami matyti oro stebėjimo ir prognozės.

Norėdami pakeisti žemėlapį: spustelėkite ant žalios mygtukų su juodo kryžiaus žemyn,; žalią mygtuką su brūkšneliu, jei norite nutolinti; arba žalių rodyklių gretimoms žemėlapius.


METAR-TAF: